createdAt,value
2023-02-06T19:01:04.308Z,103264.44
2023-02-06T19:06:15.508Z,103264.44
2023-02-06T19:11:20.629Z,103259.97
2023-02-06T19:16:30.239Z,103253.66
2023-02-06T19:21:35.415Z,103251.88
2023-02-06T19:26:40.479Z,103264.38
2023-02-06T19:31:48.165Z,103264.03
2023-02-06T19:36:53.796Z,103258.63
2023-02-06T19:41:58.846Z,103249.72
2023-02-06T19:47:06.612Z,103256.16
2023-02-06T19:52:14.488Z,103271.84
2023-02-06T19:57:19.570Z,103272.25
2023-02-06T20:44:06.022Z,103299.09
2023-02-06T20:49:15.838Z,103305.28
2023-02-06T20:54:21.156Z,103296.22
2023-02-06T20:59:29.337Z,103299.94
2023-02-06T21:04:35.499Z,103289.41
2023-02-06T21:09:40.788Z,103292.31
2023-02-06T21:14:48.614Z,103282.41
2023-02-06T21:19:53.996Z,103276.44
2023-02-06T21:25:00.334Z,103277.13
2023-02-06T21:30:09.960Z,103270.31
2023-02-06T21:35:15.163Z,103273.47
2023-02-06T21:40:21.162Z,103269.06
2023-02-06T21:45:28.823Z,103266.28
2023-02-06T21:50:33.898Z,103270.31
2023-02-06T21:55:44.233Z,103268.47
2023-02-06T22:00:54.508Z,103265.78
2023-02-06T22:06:08.386Z,103274.00
2023-02-06T22:11:21.643Z,103273.81
2023-02-06T22:16:29.625Z,103281.97
2023-02-06T22:21:35.057Z,103273.28
2023-02-06T22:26:41.623Z,103273.09
2023-02-06T22:31:49.433Z,103273.75
2023-02-06T22:36:54.707Z,103274.16
2023-02-06T22:41:59.810Z,103261.13
2023-02-06T22:47:07.570Z,103274.41
2023-02-06T22:52:33.303Z,103275.03
2023-02-06T22:57:39.532Z,103278.16
2023-02-06T23:02:47.746Z,103270.38
2023-02-06T23:07:52.812Z,103255.66
